createdAt,value
2016-06-04T00:00:26.151Z,0
2016-06-04T00:01:26.169Z,0
2016-06-04T00:02:26.219Z,0
2016-06-04T00:03:26.252Z,0
2016-06-04T00:04:26.287Z,0
2016-06-04T00:05:26.336Z,0
2016-06-04T00:06:26.402Z,0
2016-06-04T00:07:26.405Z,0
2016-06-04T00:08:26.438Z,0
2016-06-04T00:09:26.472Z,0
2016-06-04T00:10:26.569Z,0
2016-06-04T00:11:26.868Z,0
2016-06-04T00:12:26.573Z,0
2016-06-04T00:13:26.640Z,0
2016-06-04T00:14:26.673Z,0
2016-06-04T00:15:26.707Z,0
2016-06-04T00:16:26.740Z,0
2016-06-04T00:17:26.790Z,0
2016-06-04T00:18:26.824Z,0
2016-06-04T00:19:26.873Z,0
2016-06-04T00:20:26.924Z,0
2016-06-04T00:21:26.942Z,0
2016-06-04T00:22:26.976Z,0
2016-06-04T00:23:27.009Z,0
2016-06-04T00:24:27.044Z,0
2016-06-04T00:25:27.078Z,0
2016-06-04T00:26:27.315Z,0
2016-06-04T00:27:27.177Z,0
2016-06-04T00:28:27.210Z,0
2016-06-04T00:29:27.229Z,0
2016-06-04T00:30:27.263Z,0
2016-06-04T00:31:27.313Z,0
2016-06-04T00:32:27.361Z,0
2016-06-04T00:33:27.396Z,0
2016-06-04T00:34:27.430Z,0
2016-06-04T00:35:27.495Z,0
2016-06-04T00:36:27.529Z,0
2016-06-04T00:37:27.563Z,0
2016-06-04T00:38:27.582Z,0
2016-06-04T00:39:27.616Z,0
2016-06-04T00:40:27.649Z,0
2016-06-04T00:41:27.558Z,0
2016-06-04T00:42:27.733Z,0
2016-06-04T00:43:27.782Z,0
2016-06-04T00:44:27.816Z,0
2016-06-04T00:45:27.850Z,0
2016-06-04T00:46:27.885Z,0
2016-06-04T00:47:27.918Z,0
2016-06-04T00:48:27.968Z,0
2016-06-04T00:49:28.017Z,0
2016-06-04T00:50:27.895Z,0
2016-06-04T00:51:28.070Z,0
2016-06-04T00:52:28.119Z,0
2016-06-04T00:53:28.029Z,0
2016-06-04T00:54:28.187Z,0
2016-06-04T00:55:28.220Z,0
2016-06-04T00:56:28.630Z,0
2016-06-04T00:57:28.304Z,0
2016-06-04T00:58:28.182Z,0
2016-06-04T00:59:28.400Z,0
2016-06-04T01:00:28.468Z,0
2016-06-04T01:01:28.550Z,0
2016-06-04T01:02:28.618Z,0
2016-06-04T01:03:28.670Z,0
2016-06-04T01:04:28.744Z,0
2016-06-04T01:05:28.791Z,0
2016-06-04T01:06:28.837Z,0
2016-06-04T01:07:28.882Z,0
2016-06-04T01:08:28.928Z,0
2016-06-04T01:09:29.002Z,0
2016-06-04T01:10:29.025Z,0
2016-06-04T01:11:29.078Z,0
2016-06-04T01:12:29.117Z,0
2016-06-04T01:13:29.155Z,0
2016-06-04T01:14:29.192Z,0
2016-06-04T01:15:29.243Z,0
2016-06-04T01:16:29.278Z,0
2016-06-04T01:17:29.157Z,0
2016-06-04T01:18:29.350Z,0
2016-06-04T01:19:29.415Z,0
2016-06-04T01:20:29.450Z,0
2016-06-04T01:21:29.500Z,0
2016-06-04T01:22:29.519Z,0
2016-06-04T01:23:29.585Z,0
2016-06-04T01:24:29.603Z,0
2016-06-04T01:25:29.622Z,0
2016-06-04T01:26:29.515Z,0
2016-06-04T01:27:29.722Z,0
2016-06-04T01:28:29.740Z,0
2016-06-04T01:29:29.774Z,0
2016-06-04T01:30:29.824Z,0
2016-06-04T01:31:29.859Z,0
2016-06-04T01:32:29.892Z,0
2016-06-04T01:33:29.926Z,0
2016-06-04T01:34:29.959Z,0
2016-06-04T01:35:30.010Z,0
2016-06-04T01:36:30.106Z,0
2016-06-04T01:37:29.765Z,0
2016-06-04T01:38:30.112Z,0
2016-06-04T01:39:30.145Z,0
2016-06-04T01:40:30.179Z,0
2016-06-04T01:41:30.307Z,0
2016-06-04T01:42:30.278Z,0
2016-06-04T01:43:30.297Z,0
2016-06-04T01:44:30.347Z,0
2016-06-04T01:45:30.380Z,0
2016-06-04T01:46:30.414Z,0
2016-06-04T01:47:30.448Z,0
2016-06-04T01:48:30.498Z,0
2016-06-04T01:49:30.360Z,0
2016-06-04T01:50:30.581Z,0
2016-06-04T01:51:30.599Z,0
2016-06-04T01:52:30.633Z,0
2016-06-04T01:53:30.668Z,0
2016-06-04T01:54:30.716Z,0
2016-06-04T01:55:30.751Z,0
2016-06-04T01:56:30.847Z,0
2016-06-04T01:57:30.819Z,0
2016-06-04T01:58:30.853Z,0
2016-06-04T01:59:30.887Z,0
2016-06-04T02:00:30.936Z,0
2016-06-04T02:01:30.971Z,0
2016-06-04T02:02:31.020Z,0
2016-06-04T02:03:31.037Z,0
2016-06-04T02:04:31.088Z,0
2016-06-04T02:05:31.137Z,0
2016-06-04T02:06:31.170Z,0
2016-06-04T02:07:31.206Z,0
2016-06-04T02:08:31.254Z,0
2016-06-04T02:09:31.288Z,0
2016-06-04T02:10:31.323Z,0
2016-06-04T02:11:31.998Z,0
2016-06-04T02:12:31.389Z,0
2016-06-04T02:13:31.425Z,0
2016-06-04T02:14:31.458Z,0
2016-06-04T02:15:31.492Z,0
2016-06-04T02:16:31.541Z,0
2016-06-04T02:17:31.575Z,0
2016-06-04T02:18:31.625Z,0
2016-06-04T02:19:31.659Z,0
2016-06-04T02:20:31.693Z,0
2016-06-04T02:21:31.727Z,0
2016-06-04T02:22:31.761Z,0
2016-06-04T02:23:31.639Z,0
2016-06-04T02:24:31.830Z,0
2016-06-04T02:25:31.879Z,0
2016-06-04T02:26:31.927Z,0
2016-06-04T02:27:31.977Z,0
2016-06-04T02:28:31.980Z,0
2016-06-04T02:29:32.029Z,4
2016-06-04T02:30:32.063Z,4
2016-06-04T02:31:32.098Z,0
2016-06-04T02:32:32.132Z,0
2016-06-04T02:33:32.165Z,4
2016-06-04T02:34:32.199Z,4
2016-06-04T02:35:32.234Z,0
2016-06-04T02:36:32.127Z,4
2016-06-04T02:37:32.317Z,4
2016-06-04T02:38:32.350Z,4
2016-06-04T02:39:32.401Z,4
2016-06-04T02:40:32.434Z,4
2016-06-04T02:41:32.656Z,8
2016-06-04T02:42:32.503Z,8
2016-06-04T02:43:32.536Z,8
2016-06-04T02:44:32.570Z,8
2016-06-04T02:45:32.620Z,12
2016-06-04T02:46:32.653Z,12
2016-06-04T02:47:32.688Z,12
2016-06-04T02:48:32.736Z,16
2016-06-04T02:49:32.786Z,12
2016-06-04T02:50:32.805Z,20
2016-06-04T02:51:32.839Z,20
2016-06-04T02:52:32.872Z,24
2016-06-04T02:53:32.938Z,24
2016-06-04T02:54:32.957Z,28
2016-06-04T02:55:32.991Z,32
2016-06-04T02:56:33.962Z,36
2016-06-04T02:57:33.058Z,40
2016-06-04T02:58:32.951Z,44
2016-06-04T02:59:33.126Z,48
2016-06-04T03:00:33.176Z,52
2016-06-04T03:01:33.226Z,60
2016-06-04T03:02:33.243Z,68
2016-06-04T03:03:33.293Z,72
2016-06-04T03:04:33.359Z,80
2016-06-04T03:05:33.377Z,84
2016-06-04T03:06:33.410Z,92
2016-06-04T03:07:33.445Z,104
2016-06-04T03:08:33.479Z,116
2016-06-04T03:09:33.497Z,124
2016-06-04T03:10:33.953Z,132
2016-06-04T03:11:33.595Z,144
2016-06-04T03:12:33.614Z,156
2016-06-04T03:13:33.664Z,168
2016-06-04T03:14:33.698Z,184
2016-06-04T03:15:33.747Z,196
2016-06-04T03:16:33.766Z,208
2016-06-04T03:17:33.815Z,224
2016-06-04T03:18:33.849Z,240
2016-06-04T03:19:33.884Z,260
2016-06-04T03:20:33.917Z,276
2016-06-04T03:21:34.013Z,292
2016-06-04T03:22:34.298Z,312
2016-06-04T03:23:34.035Z,332
2016-06-04T03:24:34.053Z,352
2016-06-04T03:25:34.102Z,372
2016-06-04T03:26:34.449Z,392
2016-06-04T03:27:34.171Z,420
2016-06-04T03:28:34.220Z,440
2016-06-04T03:29:34.254Z,464
2016-06-04T03:30:34.288Z,492
2016-06-04T03:31:34.322Z,520
2016-06-04T03:32:34.356Z,548
2016-06-04T03:33:34.389Z,572
2016-06-04T03:34:34.283Z,600
2016-06-04T03:35:34.457Z,632
2016-06-04T03:36:34.523Z,660
2016-06-04T03:37:34.556Z,692
2016-06-04T03:38:34.606Z,724
2016-06-04T03:39:34.624Z,760
2016-06-04T03:40:34.862Z,792
2016-06-04T03:41:34.786Z,828
2016-06-04T03:42:34.742Z,868
2016-06-04T03:43:34.791Z,904
2016-06-04T03:44:34.825Z,944
2016-06-04T03:45:34.844Z,992
2016-06-04T03:46:34.878Z,1036
2016-06-04T03:47:34.912Z,1080
2016-06-04T03:48:34.789Z,1116
2016-06-04T03:49:34.995Z,1156
2016-06-04T03:50:34.872Z,1196
2016-06-04T03:51:34.906Z,1236
2016-06-04T03:52:35.112Z,1276
2016-06-04T03:53:34.991Z,1316
2016-06-04T03:54:35.180Z,1356
2016-06-04T03:55:35.683Z,1396
2016-06-04T03:56:35.263Z,1440
2016-06-04T03:57:35.282Z,1480
2016-06-04T03:58:35.160Z,1524
2016-06-04T03:59:35.366Z,1568
2016-06-04T04:00:35.399Z,1612
2016-06-04T04:01:35.433Z,1660
2016-06-04T04:02:35.483Z,1704
2016-06-04T04:03:35.518Z,1752
2016-06-04T04:04:35.551Z,1796
2016-06-04T04:05:35.601Z,1840
2016-06-04T04:06:35.619Z,1876
2016-06-04T04:07:35.668Z,1912
2016-06-04T04:08:35.718Z,1952
2016-06-04T04:09:35.829Z,1992
2016-06-04T04:10:35.770Z,2028
2016-06-04T04:11:36.023Z,2072
2016-06-04T04:12:35.854Z,2116
2016-06-04T04:13:35.887Z,2160
2016-06-04T04:14:35.922Z,2200
2016-06-04T04:15:35.971Z,2244
2016-06-04T04:16:36.005Z,2280
2016-06-04T04:17:36.039Z,2316
2016-06-04T04:18:36.104Z,2356
2016-06-04T04:19:36.106Z,2392
2016-06-04T04:20:36.172Z,2432
2016-06-04T04:21:36.034Z,2484
2016-06-04T04:22:36.225Z,2556
2016-06-04T04:23:36.258Z,2628
2016-06-04T04:24:36.308Z,2688
2016-06-04T04:25:36.436Z,2740
2016-06-04T04:26:37.283Z,2800
2016-06-04T04:27:36.425Z,2868
2016-06-04T04:28:36.444Z,3252
2016-06-04T04:29:36.478Z,3972
2016-06-04T04:30:36.527Z,4488
2016-06-04T04:31:36.576Z,4676
2016-06-04T04:32:36.595Z,4900
2016-06-04T04:33:36.644Z,5124
2016-06-04T04:34:36.679Z,5320
2016-06-04T04:35:36.696Z,5532
2016-06-04T04:36:36.746Z,5696
2016-06-04T04:37:36.796Z,5816
2016-06-04T04:38:36.829Z,5884
2016-06-04T04:39:36.896Z,6088
2016-06-04T04:40:36.913Z,6300
2016-06-04T04:41:36.901Z,6480
2016-06-04T04:42:36.981Z,6656
2016-06-04T04:43:37.015Z,6840
2016-06-04T04:44:37.081Z,6820
2016-06-04T04:45:37.115Z,6812
2016-06-04T04:46:37.133Z,7000
2016-06-04T04:47:37.182Z,7224
2016-06-04T04:48:37.075Z,7440
2016-06-04T04:49:37.250Z,7764
2016-06-04T04:50:37.300Z,7944
2016-06-04T04:51:37.334Z,8196
2016-06-04T04:52:37.367Z,8368
2016-06-04T04:53:37.402Z,8700
2016-06-04T04:54:37.467Z,8884
2016-06-04T04:55:38.048Z,9128
2016-06-04T04:56:37.691Z,9400
2016-06-04T04:57:37.583Z,9512
2016-06-04T04:58:37.619Z,9736
2016-06-04T04:59:37.652Z,9876
2016-06-04T05:00:37.685Z,9808
2016-06-04T05:01:37.735Z,10132
2016-06-04T05:02:37.785Z,10168
2016-06-04T05:03:37.819Z,10448
2016-06-04T05:04:37.853Z,10708
2016-06-04T05:05:37.918Z,10480
2016-06-04T05:06:37.921Z,10664
2016-06-04T05:07:37.971Z,10700
2016-06-04T05:08:38.020Z,10848
2016-06-04T05:09:38.054Z,10948
2016-06-04T05:10:38.119Z,11152
2016-06-04T05:11:39.575Z,11436
2016-06-04T05:12:38.187Z,11604
2016-06-04T05:13:38.237Z,12020
2016-06-04T05:14:38.271Z,12164
2016-06-04T05:15:38.304Z,12116
2016-06-04T05:16:38.197Z,13156
2016-06-04T05:17:38.232Z,13252
2016-06-04T05:18:38.437Z,12708
2016-06-04T05:19:38.487Z,13484
2016-06-04T05:20:38.521Z,13652
2016-06-04T05:21:38.556Z,13064
2016-06-04T05:22:38.605Z,13120
2016-06-04T05:23:38.653Z,12124
2016-06-04T05:24:38.689Z,9876
2016-06-04T05:25:38.972Z,11900
2016-06-04T05:26:39.569Z,14132
2016-06-04T05:27:38.805Z,13848
2016-06-04T05:28:38.855Z,14464
2016-06-04T05:29:38.905Z,15648
2016-06-04T05:30:38.938Z,15552
2016-06-04T05:31:38.832Z,15680
2016-06-04T05:32:39.038Z,16768
2016-06-04T05:33:39.072Z,16640
2016-06-04T05:34:39.121Z,16416
2016-06-04T05:35:39.155Z,17056
2016-06-04T05:36:39.220Z,17280
2016-06-04T05:37:39.083Z,16672
2016-06-04T05:38:39.304Z,16960
2016-06-04T05:39:39.322Z,17344
2016-06-04T05:40:39.388Z,17376
2016-06-04T05:41:39.781Z,18432
2016-06-04T05:42:39.455Z,19520
2016-06-04T05:43:39.520Z,16480
2016-06-04T05:44:39.554Z,13608
2016-06-04T05:45:39.604Z,14440
2016-06-04T05:46:39.622Z,13780
2016-06-04T05:47:39.734Z,8764
2016-06-04T05:48:39.721Z,7000
2016-06-04T05:49:39.771Z,6900
2016-06-04T05:50:39.805Z,7920
2016-06-04T05:51:39.854Z,8360
2016-06-04T05:52:39.920Z,9200
2016-06-04T05:53:39.938Z,11124
2016-06-04T05:54:40.003Z,12380
2016-06-04T05:55:40.022Z,9492
2016-06-04T05:56:39.977Z,7164
2016-06-04T05:57:40.120Z,5656
2016-06-04T05:58:40.155Z,5144
2016-06-04T05:59:40.220Z,5124
2016-06-04T06:00:40.253Z,5160
2016-06-04T06:01:40.288Z,5104
2016-06-04T06:02:40.337Z,5132
2016-06-04T06:03:40.387Z,5224
2016-06-04T06:04:40.421Z,5296
2016-06-04T06:05:40.486Z,5432
2016-06-04T06:06:40.519Z,5500
2016-06-04T06:07:40.538Z,5580
2016-06-04T06:08:40.603Z,5672
2016-06-04T06:09:40.637Z,5812
2016-06-04T06:10:41.155Z,5960
2016-06-04T06:11:40.908Z,6140
2016-06-04T06:12:40.754Z,6420
2016-06-04T06:13:40.804Z,6576
2016-06-04T06:14:40.838Z,6672
2016-06-04T06:15:40.873Z,6760
2016-06-04T06:16:40.921Z,6908
2016-06-04T06:17:40.956Z,7192
2016-06-04T06:18:41.006Z,8184
2016-06-04T06:19:41.054Z,8804
2016-06-04T06:20:41.073Z,8708
2016-06-04T06:21:40.982Z,8960
2016-06-04T06:22:41.187Z,8968
2016-06-04T06:23:41.206Z,7520
2016-06-04T06:24:41.239Z,7224
2016-06-04T06:25:41.899Z,7328
2016-06-04T06:26:41.871Z,7552
2016-06-04T06:27:41.483Z,7640
2016-06-04T06:28:41.407Z,7984
2016-06-04T06:29:41.456Z,8124
2016-06-04T06:30:41.491Z,8124
2016-06-04T06:31:41.540Z,7944
2016-06-04T06:32:41.574Z,8024
2016-06-04T06:33:41.608Z,8308
2016-06-04T06:34:41.658Z,8588
2016-06-04T06:35:41.722Z,9124
2016-06-04T06:36:41.741Z,8744
2016-06-04T06:37:41.775Z,8620
2016-06-04T06:38:41.824Z,8612
2016-06-04T06:39:41.858Z,8736
2016-06-04T06:40:42.190Z,8856
2016-06-04T06:41:42.098Z,9576
2016-06-04T06:42:41.835Z,9380
2016-06-04T06:43:42.041Z,8880
2016-06-04T06:44:42.059Z,8900
2016-06-04T06:45:42.109Z,8924
2016-06-04T06:46:42.143Z,8912
2016-06-04T06:47:42.193Z,9124
2016-06-04T06:48:42.211Z,9524
2016-06-04T06:49:42.260Z,9304
2016-06-04T06:50:42.309Z,9016
2016-06-04T06:51:42.188Z,8820
2016-06-04T06:52:42.393Z,8716
2016-06-04T06:53:42.428Z,8616
2016-06-04T06:54:42.477Z,8500
2016-06-04T06:55:43.558Z,8412
2016-06-04T06:56:42.608Z,8212
2016-06-04T06:57:42.594Z,8156
2016-06-04T06:58:42.644Z,8068
2016-06-04T06:59:42.662Z,8076
2016-06-04T07:00:42.728Z,8020
2016-06-04T07:01:42.762Z,8040
2016-06-04T07:02:42.811Z,8084
2016-06-04T07:03:42.673Z,8072
2016-06-04T07:04:42.879Z,8040
2016-06-04T07:05:42.897Z,8240
2016-06-04T07:06:42.963Z,8096
2016-06-04T07:07:42.997Z,8260
2016-06-04T07:08:43.030Z,8088
2016-06-04T07:09:43.095Z,8140
2016-06-04T07:10:43.441Z,7984
2016-06-04T07:11:43.507Z,7944
2016-06-04T07:12:43.212Z,7868
2016-06-04T07:13:43.231Z,7796
2016-06-04T07:14:43.282Z,7804
2016-06-04T07:15:43.330Z,7912
2016-06-04T07:16:43.348Z,7900
2016-06-04T07:17:43.398Z,7908
2016-06-04T07:18:43.448Z,7860
2016-06-04T07:19:43.498Z,7804
2016-06-04T07:20:43.562Z,7796
2016-06-04T07:21:43.565Z,7768
2016-06-04T07:22:43.599Z,7856
2016-06-04T07:23:43.634Z,7944
2016-06-04T07:24:43.526Z,7896
2016-06-04T07:25:44.216Z,7816
2016-06-04T07:26:44.173Z,7876
2016-06-04T07:27:43.800Z,7940
2016-06-04T07:28:43.834Z,8144
2016-06-04T07:29:43.884Z,8488
2016-06-04T07:30:43.933Z,9248
2016-06-04T07:31:43.670Z,9608
2016-06-04T07:32:44.000Z,9004
2016-06-04T07:33:44.050Z,8632
2016-06-04T07:34:44.085Z,8268
2016-06-04T07:35:44.134Z,8588
2016-06-04T07:36:44.168Z,8812
2016-06-04T07:37:44.218Z,8372
2016-06-04T07:38:44.252Z,8360
2016-06-04T07:39:44.286Z,8536
2016-06-04T07:40:44.022Z,8712
2016-06-04T07:41:45.604Z,8928
2016-06-04T07:42:44.435Z,9160
2016-06-04T07:43:44.313Z,10448
2016-06-04T07:44:44.487Z,12360
2016-06-04T07:45:44.551Z,20160
2016-06-04T07:46:44.710Z,32768
2016-06-04T07:47:44.635Z,45152
2016-06-04T07:48:44.669Z,54848
2016-06-04T07:49:44.718Z,56800
2016-06-04T07:50:44.596Z,52896
2016-06-04T07:51:44.787Z,47840
2016-06-04T07:52:44.836Z,50368
2016-06-04T07:53:44.870Z,59360
2016-06-04T07:54:44.763Z,66048
2016-06-04T07:55:44.938Z,67072
2016-06-04T07:56:45.800Z,59072
2016-06-04T07:57:45.037Z,46976
2016-06-04T07:58:45.071Z,44256
2016-06-04T07:59:45.136Z,48256
2016-06-04T08:00:45.186Z,60416
2016-06-04T08:01:45.220Z,67520
2016-06-04T08:02:45.300Z,68256
2016-06-04T08:03:45.163Z,56448
2016-06-04T08:04:45.353Z,51552
2016-06-04T08:05:45.402Z,45792
2016-06-04T08:06:45.452Z,55424
2016-06-04T08:07:45.502Z,53888
2016-06-04T08:08:45.552Z,52000
2016-06-04T08:09:45.569Z,51392
2016-06-04T08:10:45.635Z,47616
2016-06-04T08:11:45.684Z,47328
2016-06-04T08:12:45.749Z,47872
2016-06-04T08:13:45.705Z,47232
2016-06-04T08:14:45.817Z,56992
2016-06-04T08:15:45.867Z,54016
2016-06-04T08:16:45.916Z,51968
2016-06-04T08:17:45.982Z,50304
2016-06-04T08:18:45.999Z,46112
2016-06-04T08:19:45.893Z,42368
2016-06-04T08:20:46.099Z,48320
2016-06-04T08:21:46.148Z,60448
2016-06-04T08:22:46.198Z,65280
2016-06-04T08:23:46.247Z,67808
2016-06-04T08:24:46.298Z,62208
2016-06-04T08:25:46.222Z,54144
2016-06-04T08:26:47.100Z,40640
2016-06-04T08:27:46.274Z,34976
2016-06-04T08:28:46.480Z,34528
2016-06-04T08:29:46.545Z,47552
2016-06-04T08:30:46.594Z,58432
2016-06-04T08:31:46.659Z,59456
2016-06-04T08:32:46.678Z,64128
2016-06-04T08:33:46.743Z,60128
2016-06-04T08:34:46.793Z,50304
2016-06-04T08:35:46.827Z,48320
2016-06-04T08:36:46.938Z,43136
2016-06-04T08:37:46.988Z,42720
2016-06-04T08:38:46.913Z,50336
2016-06-04T08:39:47.024Z,61856
2016-06-04T08:40:47.074Z,66464
2016-06-04T08:41:47.108Z,61856
2016-06-04T08:42:47.188Z,52992
2016-06-04T08:43:47.223Z,36608
2016-06-04T08:44:47.289Z,34272
2016-06-04T08:45:47.338Z,32320
2016-06-04T08:46:47.372Z,42528
2016-06-04T08:47:47.437Z,48512
2016-06-04T08:48:47.487Z,59488
2016-06-04T08:49:47.521Z,64256
2016-06-04T08:50:47.585Z,71840
2016-06-04T08:51:47.635Z,65344
2016-06-04T08:52:47.529Z,52832
2016-06-04T08:53:47.734Z,38784
2016-06-04T08:54:47.800Z,34240
2016-06-04T08:55:47.834Z,35904
2016-06-04T08:56:47.742Z,48032
2016-06-04T08:57:47.933Z,59168
2016-06-04T08:58:47.857Z,64320
2016-06-04T08:59:48.031Z,64096
2016-06-04T09:00:48.097Z,60768
2016-06-04T09:01:48.147Z,54112
2016-06-04T09:02:48.212Z,47136
2016-06-04T09:03:48.261Z,39616
2016-06-04T09:04:48.295Z,45856
2016-06-04T09:05:48.361Z,51936
2016-06-04T09:06:48.426Z,57920
2016-06-04T09:07:48.475Z,61504
2016-06-04T09:08:48.525Z,62592
2016-06-04T09:09:48.575Z,57440
2016-06-04T09:10:48.608Z,49376
2016-06-04T09:11:48.986Z,55136
2016-06-04T09:12:49.333Z,55584
2016-06-04T09:13:48.772Z,55392
2016-06-04T09:14:48.822Z,62144
2016-06-04T09:15:48.887Z,68064
2016-06-04T09:16:48.891Z,69568
2016-06-04T09:17:48.987Z,73088
2016-06-04T09:18:49.035Z,70208
2016-06-04T09:19:49.102Z,65216
2016-06-04T09:20:49.151Z,53600
2016-06-04T09:21:49.216Z,49824
2016-06-04T09:22:49.266Z,46016
2016-06-04T09:23:49.315Z,47456
2016-06-04T09:24:49.365Z,53632
2016-06-04T09:25:49.430Z,63136
2016-06-04T09:26:49.307Z,74656
2016-06-04T09:27:49.529Z,82304
2016-06-04T09:28:50.047Z,85824
2016-06-04T09:29:49.629Z,82464
2016-06-04T09:30:49.693Z,74912
2016-06-04T09:31:49.742Z,53984
2016-06-04T09:32:49.823Z,56640
2016-06-04T09:33:49.859Z,51808
2016-06-04T09:34:49.908Z,50624
2016-06-04T09:35:49.957Z,55232
2016-06-04T09:36:50.006Z,63008
2016-06-04T09:37:50.072Z,70144
2016-06-04T09:38:50.122Z,78080
2016-06-04T09:39:50.014Z,88512
2016-06-04T09:40:50.064Z,96384
2016-06-04T09:41:50.286Z,101216
2016-06-04T09:42:50.617Z,98528
2016-06-04T09:43:50.947Z,89056
2016-06-04T09:44:50.450Z,78688
2016-06-04T09:45:50.499Z,67008
2016-06-04T09:46:50.565Z,59136
2016-06-04T09:47:50.614Z,59136
2016-06-04T09:48:50.679Z,63904
2016-06-04T09:49:50.744Z,77088
2016-06-04T09:50:50.997Z,88832
2016-06-04T09:51:50.829Z,97312
2016-06-04T09:52:50.893Z,101216
2016-06-04T09:53:50.926Z,103040
2016-06-04T09:54:50.993Z,98496
2016-06-04T09:55:51.042Z,92992
2016-06-04T09:56:51.107Z,80384
2016-06-04T09:57:51.156Z,66976
2016-06-04T09:58:51.551Z,57696
2016-06-04T09:59:51.271Z,53824
2016-06-04T10:00:51.321Z,54880
2016-06-04T10:01:51.370Z,60736
2016-06-04T10:02:51.436Z,67136
2016-06-04T10:03:51.486Z,83168
2016-06-04T10:04:51.535Z,96896
2016-06-04T10:05:51.601Z,108480
2016-06-04T10:06:51.710Z,112064
2016-06-04T10:07:51.772Z,117888
2016-06-04T10:08:51.881Z,116864
2016-06-04T10:09:51.942Z,108480
2016-06-04T10:10:52.008Z,99104
2016-06-04T10:11:52.083Z,86272
2016-06-04T10:12:52.143Z,78368
2016-06-04T10:13:52.469Z,67936
2016-06-04T10:14:52.340Z,62752
2016-06-04T10:15:52.318Z,62784
2016-06-04T10:16:52.371Z,61952
2016-06-04T10:17:52.470Z,62944
2016-06-04T10:18:52.522Z,69056
2016-06-04T10:19:52.264Z,73824
2016-06-04T10:20:52.472Z,78016
2016-06-04T10:21:52.726Z,82208
2016-06-04T10:22:52.746Z,84416
2016-06-04T10:23:52.796Z,84320
2016-06-04T10:24:52.833Z,83744
2016-06-04T10:25:52.883Z,72640
2016-06-04T10:26:52.948Z,68000
2016-06-04T10:27:53.890Z,61952
2016-06-04T10:28:52.923Z,60096
2016-06-04T10:29:53.114Z,60768
2016-06-04T10:30:53.179Z,61856
2016-06-04T10:31:53.197Z,64384
2016-06-04T10:32:53.279Z,65024
2016-06-04T10:33:53.327Z,67904
2016-06-04T10:34:53.362Z,16040
2016-06-04T10:35:53.427Z,17920
2016-06-04T10:36:53.492Z,12192
2016-06-04T10:37:53.542Z,77856
2016-06-04T10:38:53.591Z,80256
2016-06-04T10:39:53.641Z,78272
2016-06-04T10:40:53.690Z,76704
2016-06-04T10:41:53.756Z,72736
2016-06-04T10:42:54.790Z,69888
2016-06-04T10:43:53.887Z,63296
2016-06-04T10:44:53.920Z,12108
2016-06-04T10:45:53.954Z,10708
2016-06-04T10:46:54.003Z,10788
2016-06-04T10:47:54.070Z,10572
2016-06-04T10:48:54.118Z,10240
2016-06-04T10:49:54.199Z,11008
2016-06-04T10:50:54.233Z,55168
2016-06-04T10:51:54.126Z,58112
2016-06-04T10:52:54.317Z,62592
2016-06-04T10:53:54.381Z,26144
2016-06-04T10:54:54.447Z,77888
2016-06-04T10:55:54.511Z,84704
2016-06-04T10:56:54.530Z,87072
2016-06-04T10:57:54.471Z,89216
2016-06-04T10:58:54.629Z,89792
2016-06-04T10:59:54.680Z,57504
2016-06-04T11:00:54.729Z,25088
2016-06-04T11:01:54.794Z,44000
2016-06-04T11:02:54.875Z,14580
2016-06-04T11:03:54.894Z,15720
2016-06-04T11:04:54.943Z,15560
2016-06-04T11:05:55.008Z,16832
2016-06-04T11:06:55.057Z,42304
2016-06-04T11:07:55.107Z,11928
2016-06-04T11:08:55.157Z,11956
2016-06-04T11:09:55.049Z,10060
2016-06-04T11:10:55.256Z,9584
2016-06-04T11:11:55.304Z,8180
2016-06-04T11:12:55.387Z,8432
2016-06-04T11:13:56.310Z,25440
2016-06-04T11:14:55.470Z,76416
2016-06-04T11:15:55.520Z,15796
2016-06-04T11:16:55.538Z,79040
2016-06-04T11:17:55.603Z,80096
2016-06-04T11:18:55.668Z,81984
2016-06-04T11:19:55.702Z,80864
2016-06-04T11:20:55.751Z,79072
2016-06-04T11:21:55.801Z,76928
2016-06-04T11:22:55.850Z,71296
2016-06-04T11:23:55.775Z,68832
2016-06-04T11:24:55.950Z,47680
2016-06-04T11:25:56.015Z,62688
2016-06-04T11:26:56.267Z,16212
2016-06-04T11:27:56.130Z,64480
2016-06-04T11:28:56.164Z,14692
2016-06-04T11:29:56.214Z,13380
2016-06-04T11:30:56.263Z,21024
2016-06-04T11:31:56.313Z,57632
2016-06-04T11:32:56.377Z,68448
2016-06-04T11:33:56.411Z,75072
2016-06-04T11:34:56.477Z,78208
2016-06-04T11:35:56.542Z,80480
2016-06-04T11:36:56.576Z,78016
2016-06-04T11:37:56.624Z,36960
2016-06-04T11:38:56.675Z,89824
2016-06-04T11:39:56.724Z,97824
2016-06-04T11:40:56.774Z,104192
2016-06-04T11:41:57.167Z,107104
2016-06-04T11:42:56.888Z,106944
2016-06-04T11:43:56.922Z,106880
2016-06-04T11:44:56.973Z,108256
2016-06-04T11:45:57.053Z,24992
2016-06-04T11:46:57.086Z,23904
2016-06-04T11:47:57.137Z,118880
2016-06-04T11:48:57.187Z,118464
2016-06-04T11:49:57.236Z,15956
2016-06-04T11:50:57.285Z,75872
2016-06-04T11:51:57.367Z,36096
2016-06-04T11:52:57.400Z,15940
2016-06-04T11:53:57.450Z,111232
2016-06-04T11:54:57.343Z,12476
2016-06-04T11:55:58.205Z,9928
2016-06-04T11:56:57.722Z,13464
2016-06-04T11:57:57.695Z,92448
2016-06-04T11:58:57.713Z,79264
2016-06-04T11:59:57.747Z,80288
2016-06-04T12:00:57.812Z,75392
2016-06-04T12:01:57.877Z,17664
2016-06-04T12:02:57.911Z,14848
2016-06-04T12:03:57.960Z,65952
2016-06-04T12:04:57.855Z,38560
2016-06-04T12:05:58.075Z,60576
2016-06-04T12:06:57.969Z,61024
2016-06-04T12:07:58.174Z,60352
2016-06-04T12:08:58.209Z,61568
2016-06-04T12:09:58.274Z,38720
2016-06-04T12:10:58.902Z,17408
2016-06-04T12:11:59.107Z,35904
2016-06-04T12:12:58.438Z,71136
2016-06-04T12:13:58.488Z,75232
2016-06-04T12:14:58.521Z,79296
2016-06-04T12:15:58.571Z,86368
2016-06-04T12:16:58.668Z,91968
2016-06-04T12:17:58.701Z,95488
2016-06-04T12:18:58.751Z,101984
2016-06-04T12:19:58.801Z,100800
2016-06-04T12:20:58.866Z,100320
2016-06-04T12:21:58.900Z,99008
2016-06-04T12:22:58.950Z,98976
2016-06-04T12:23:59.014Z,98560
2016-06-04T12:24:59.064Z,99488
2016-06-04T12:25:59.145Z,98912
2016-06-04T12:26:59.194Z,104928
2016-06-04T12:27:59.073Z,103296
2016-06-04T12:28:59.294Z,100224
2016-06-04T12:29:59.344Z,13452
2016-06-04T12:30:59.392Z,95200
2016-06-04T12:31:59.458Z,100608
2016-06-04T12:32:59.508Z,100512
2016-06-04T12:33:59.557Z,105920
2016-06-04T12:34:59.622Z,107808
2016-06-04T12:35:59.688Z,104736
2016-06-04T12:36:59.738Z,104704
2016-06-04T12:37:59.786Z,102272
2016-06-04T12:38:59.836Z,100000
2016-06-04T12:39:59.902Z,100000
2016-06-04T12:40:59.951Z,102752
2016-06-04T12:42:00.001Z,103712
2016-06-04T12:42:59.910Z,102880
2016-06-04T12:44:00.115Z,103360
2016-06-04T12:45:00.180Z,102624
2016-06-04T12:46:00.229Z,98624
2016-06-04T12:47:00.140Z,16640
2016-06-04T12:48:00.173Z,102912
2016-06-04T12:49:00.395Z,45024
2016-06-04T12:50:00.443Z,20224
2016-06-04T12:51:00.509Z,99744
2016-06-04T12:52:00.574Z,10824
2016-06-04T12:53:00.623Z,83008
2016-06-04T12:54:00.673Z,9304
2016-06-04T12:55:00.723Z,8068
2016-06-04T12:56:00.632Z,7396
2016-06-04T12:57:00.931Z,8860
2016-06-04T12:58:00.872Z,10664
2016-06-04T12:59:01.140Z,90368
2016-06-04T13:00:00.986Z,102272
2016-06-04T13:01:01.052Z,97024
2016-06-04T13:02:01.101Z,87744
2016-06-04T13:03:01.151Z,79808
2016-06-04T13:04:01.200Z,86144
2016-06-04T13:05:01.297Z,80672
2016-06-04T13:06:01.300Z,79968
2016-06-04T13:07:01.349Z,74880
2016-06-04T13:08:01.399Z,76704
2016-06-04T13:09:01.448Z,78880
2016-06-04T13:10:01.497Z,78144
2016-06-04T13:11:01.563Z,80736
2016-06-04T13:12:01.613Z,75584
2016-06-04T13:13:01.522Z,62016
2016-06-04T13:14:02.477Z,51488
2016-06-04T13:15:01.776Z,48800
2016-06-04T13:16:01.827Z,55648
2016-06-04T13:17:01.891Z,67840
2016-06-04T13:18:01.941Z,64160
2016-06-04T13:19:01.991Z,69152
2016-06-04T13:20:02.056Z,56160
2016-06-04T13:21:02.120Z,49312
2016-06-04T13:22:02.171Z,48032
2016-06-04T13:23:02.204Z,52992
2016-06-04T13:24:02.254Z,18560